createdAt,value
2019-01-26T00:02:09.375Z,10
2019-01-26T00:12:16.316Z,11
2019-01-26T00:22:24.765Z,11
2019-01-26T00:32:31.514Z,10
2019-01-26T00:42:39.486Z,10
2019-01-26T00:52:52.217Z,9
2019-01-26T01:03:00.519Z,12
2019-01-26T01:13:06.216Z,11
2019-01-26T01:23:14.998Z,9
2019-01-26T01:33:22.487Z,11
2019-01-26T01:43:30.922Z,9
2019-01-26T01:53:37.206Z,10
2019-01-26T02:03:44.339Z,11
2019-01-26T02:13:53.509Z,11
2019-01-26T02:24:00.762Z,9
2019-01-26T02:34:09.235Z,8
2019-01-26T02:44:16.395Z,7
2019-01-26T02:54:23.555Z,6
2019-01-26T03:04:31.590Z,7
2019-01-26T03:14:37.087Z,4
2019-01-26T03:24:43.390Z,8
2019-01-26T03:34:50.985Z,6
2019-01-26T03:44:58.827Z,4
2019-01-26T03:55:06.893Z,4
2019-01-26T04:05:15.431Z,4
2019-01-26T04:15:22.778Z,4
2019-01-26T04:25:30.387Z,4
2019-01-26T04:35:36.934Z,3
2019-01-26T04:45:45.519Z,4
2019-01-26T04:55:53.626Z,3
2019-01-26T05:06:03.368Z,3
2019-01-26T05:16:11.662Z,4
2019-01-26T05:26:20.763Z,3
2019-01-26T05:36:28.032Z,5
2019-01-26T05:46:33.917Z,4
2019-01-26T05:56:42.129Z,5
2019-01-26T06:06:50.027Z,4
2019-01-26T06:16:56.421Z,5
2019-01-26T06:27:02.958Z,4
2019-01-26T06:37:09.385Z,6
2019-01-26T06:47:16.817Z,4
2019-01-26T06:57:23.889Z,4
2019-01-26T07:07:30.033Z,4
2019-01-26T07:17:35.845Z,3
2019-01-26T07:18:49.263Z,3
2019-01-26T07:28:56.834Z,4
2019-01-26T07:39:06.169Z,6
2019-01-26T07:49:15.800Z,4
2019-01-26T07:59:22.303Z,4
2019-01-26T08:09:31.320Z,4
2019-01-26T08:19:37.802Z,7
2019-01-26T08:29:46.087Z,4
2019-01-26T08:39:54.373Z,6
2019-01-26T08:50:05.521Z,6
2019-01-26T09:00:13.492Z,5
2019-01-26T09:10:18.828Z,5
2019-01-26T09:20:25.210Z,6
2019-01-26T09:30:49.820Z,6
2019-01-26T09:40:54.146Z,4
2019-01-26T09:45:37.938Z,5
2019-01-26T09:55:42.361Z,6
2019-01-26T09:56:56.351Z,4
2019-01-26T10:06:59.441Z,11
2019-01-26T10:17:06.322Z,4
2019-01-26T10:26:25.574Z,4
2019-01-26T10:36:34.868Z,4
2019-01-26T10:46:41.231Z,5
2019-01-26T10:56:49.195Z,5
2019-01-26T11:06:57.519Z,5
2019-01-26T11:17:03.928Z,6
2019-01-26T11:27:11.352Z,6
2019-01-26T11:37:20.201Z,7
2019-01-26T11:47:27.185Z,9
2019-01-26T11:57:34.997Z,19
2019-01-26T12:07:41.169Z,8
2019-01-26T12:17:48.943Z,6
2019-01-26T12:20:03.870Z,6
2019-01-26T12:30:13.122Z,8
2019-01-26T12:37:57.307Z,6
2019-01-26T12:48:03.608Z,7
2019-01-26T12:58:13.618Z,9
2019-01-26T13:08:19.040Z,8
2019-01-26T13:18:28.584Z,5
2019-01-26T13:23:56.811Z,5
2019-01-26T13:34:03.921Z,4
2019-01-26T13:44:12.823Z,11
2019-01-26T13:54:20.234Z,9
2019-01-26T14:04:30.614Z,6
2019-01-26T14:14:34.279Z,5
2019-01-26T14:24:41.170Z,4
2019-01-26T14:34:47.815Z,5
2019-01-26T14:44:54.586Z,6
2019-01-26T14:55:05.768Z,7
2019-01-26T15:05:12.597Z,6
2019-01-26T15:15:19.506Z,9
2019-01-26T15:25:25.878Z,4
2019-01-26T15:35:34.460Z,4
2019-01-26T15:36:49.064Z,4
2019-01-26T15:46:58.595Z,4
2019-01-26T15:57:09.347Z,4
2019-01-26T16:07:15.850Z,5
2019-01-26T16:17:25.672Z,8
2019-01-26T16:27:32.549Z,4
2019-01-26T16:32:13.367Z,5
2019-01-26T16:42:21.270Z,5
2019-01-26T16:52:29.298Z,5
2019-01-26T17:02:36.706Z,7
2019-01-26T17:12:43.791Z,6
2019-01-26T17:22:51.517Z,11
2019-01-26T17:32:58.594Z,14
2019-01-26T17:43:09.629Z,10
2019-01-26T17:53:17.258Z,10
2019-01-26T18:03:24.279Z,19
2019-01-26T18:13:31.195Z,21
2019-01-26T18:23:38.158Z,16
2019-01-26T18:33:45.497Z,16
2019-01-26T18:43:53.101Z,17
2019-01-26T18:54:01.676Z,22
2019-01-26T19:04:07.914Z,23
2019-01-26T19:14:16.683Z,24
2019-01-26T19:24:25.316Z,27
2019-01-26T19:34:32.743Z,22
2019-01-26T19:37:46.998Z,21
2019-01-26T19:47:54.779Z,25
2019-01-26T19:58:01.298Z,20
2019-01-26T20:08:08.494Z,21
2019-01-26T20:18:18.479Z,33
2019-01-26T20:28:25.868Z,19
2019-01-26T20:38:32.424Z,18
2019-01-26T20:48:40.492Z,20
2019-01-26T20:58:49.301Z,18
2019-01-26T21:08:55.785Z,18
2019-01-26T21:19:03.834Z,16
2019-01-26T21:29:10.051Z,14
2019-01-26T21:39:15.672Z,16
2019-01-26T21:49:22.182Z,17
2019-01-26T21:59:29.368Z,18
2019-01-26T22:09:38.175Z,15
2019-01-26T22:19:58.714Z,14
2019-01-26T22:30:06.030Z,13
2019-01-26T22:40:13.780Z,13
2019-01-26T22:50:22.779Z,11
2019-01-26T23:00:32.794Z,12
2019-01-26T23:10:39.700Z,14
2019-01-26T23:20:45.751Z,12
2019-01-26T23:30:53.575Z,11
2019-01-26T23:41:00.425Z,15
2019-01-26T23:51:07.324Z,14
